createdAt,value
2022-12-04T00:01:22.481Z,-0.42
2022-12-04T00:09:44.396Z,-0.38
2022-12-04T00:18:05.867Z,-0.43
2022-12-04T00:26:30.337Z,-0.48
2022-12-04T00:34:53.100Z,-0.47
2022-12-04T00:43:14.555Z,-0.48
2022-12-04T00:51:36.317Z,-0.45
2022-12-04T00:59:58.051Z,-0.42
2022-12-04T01:08:19.667Z,-0.44
2022-12-04T01:16:41.457Z,-0.44
2022-12-04T01:25:04.603Z,-0.44
2022-12-04T01:33:27.194Z,-0.45
2022-12-04T01:41:48.835Z,-0.51
2022-12-04T01:50:10.410Z,-0.58
2022-12-04T01:58:40.794Z,-0.65
2022-12-04T02:07:03.176Z,-0.68
2022-12-04T02:15:41.709Z,-0.67
2022-12-04T02:24:22.240Z,-0.63
2022-12-04T02:32:52.903Z,-0.63
2022-12-04T02:41:44.077Z,-0.57
2022-12-04T02:50:12.743Z,-0.59
2022-12-04T02:58:59.113Z,-0.65
2022-12-04T03:07:27.088Z,-0.66
2022-12-04T03:16:08.360Z,-0.64
2022-12-04T03:24:48.255Z,-0.69
2022-12-04T03:33:19.216Z,-0.71
2022-12-04T03:42:04.633Z,-0.72
2022-12-04T03:50:36.398Z,-0.78
2022-12-04T03:59:18.864Z,-0.78
2022-12-04T04:08:22.758Z,-0.77
2022-12-04T04:17:15.156Z,-0.81
2022-12-04T04:25:40.452Z,-0.90
2022-12-04T04:34:27.309Z,-0.97
2022-12-04T04:43:20.876Z,-1.00
2022-12-04T04:51:44.735Z,-1.00
2022-12-04T05:00:23.044Z,-1.02
2022-12-04T05:08:44.612Z,-1.02
2022-12-04T05:17:12.178Z,-1.01
2022-12-04T05:25:34.224Z,-1.00
2022-12-04T05:33:56.237Z,-0.98
2022-12-04T05:42:17.784Z,-0.96
2022-12-04T05:50:39.216Z,-0.94
2022-12-04T05:59:01.960Z,-0.96
2022-12-04T06:07:23.486Z,-0.97
2022-12-04T06:15:45.148Z,-0.94
2022-12-04T06:24:10.376Z,-0.90
2022-12-04T06:32:31.873Z,-0.88
2022-12-04T06:40:53.476Z,-0.94
2022-12-04T06:49:14.928Z,-0.98
2022-12-04T06:57:36.692Z,-0.97
2022-12-04T07:05:58.509Z,-0.91
2022-12-04T07:14:19.984Z,-0.91
2022-12-04T07:22:41.445Z,-0.90
2022-12-04T07:31:08.367Z,-0.85
2022-12-04T07:39:29.885Z,-0.81
2022-12-04T07:47:51.340Z,-0.82
2022-12-04T07:56:13.987Z,-0.83
2022-12-04T08:04:36.433Z,-0.78
2022-12-04T08:12:58.068Z,-0.73
2022-12-04T08:21:23.023Z,-0.65
2022-12-04T08:29:44.658Z,-0.63
2022-12-04T08:38:06.108Z,-0.60
2022-12-04T08:46:28.791Z,-0.52
2022-12-04T08:54:50.680Z,-0.45
2022-12-04T09:03:18.885Z,-0.42
2022-12-04T09:11:40.459Z,-0.38
2022-12-04T09:20:04.755Z,-0.35
2022-12-04T09:28:26.878Z,-0.28
2022-12-04T09:36:50.728Z,-0.24
2022-12-04T09:45:19.624Z,-0.22
2022-12-04T09:53:46.971Z,-0.19
2022-12-04T10:02:11.557Z,-0.18
2022-12-04T10:10:46.076Z,-0.13
2022-12-04T10:19:13.544Z,-0.08
2022-12-04T10:27:50.885Z,-0.03
2022-12-04T10:36:27.509Z,0.02
2022-12-04T10:44:49.119Z,-0.01
2022-12-04T10:53:14.579Z,0.02
2022-12-04T11:01:36.200Z,0.05
2022-12-04T11:10:04.427Z,0.09
2022-12-04T11:18:27.391Z,0.09
2022-12-04T11:26:50.029Z,0.12
2022-12-04T11:35:25.417Z,0.12
2022-12-04T11:43:49.512Z,0.10
2022-12-04T11:52:30.285Z,0.13
2022-12-04T12:01:15.886Z,0.12
2022-12-04T12:10:21.259Z,0.08
2022-12-04T12:18:45.591Z,0.10
2022-12-04T12:27:29.969Z,0.10
2022-12-04T12:36:08.746Z,0.08
2022-12-04T12:44:45.614Z,0.11
2022-12-04T12:53:18.015Z,0.13
2022-12-04T13:02:00.673Z,0.16
2022-12-04T13:10:29.489Z,0.14
2022-12-04T13:19:02.804Z,0.12
2022-12-04T13:27:46.367Z,0.11
2022-12-04T13:36:32.789Z,0.10
2022-12-04T13:45:02.351Z,0.13
2022-12-04T13:53:32.603Z,0.09
2022-12-04T14:02:06.455Z,0.07
2022-12-04T14:10:33.800Z,0.06
2022-12-04T14:18:59.088Z,0.03
2022-12-04T14:27:42.547Z,0.04
2022-12-04T14:36:36.920Z,0.04
2022-12-04T14:45:04.600Z,0.02
2022-12-04T14:53:32.084Z,-0.00
2022-12-04T15:01:55.238Z,-0.02
2022-12-04T15:10:45.140Z,-0.02
2022-12-04T15:19:17.395Z,-0.08
2022-12-04T15:27:39.565Z,-0.16
2022-12-04T15:36:08.710Z,-0.17
2022-12-04T15:44:33.835Z,-0.21
2022-12-04T15:53:20.254Z,-0.21
2022-12-04T16:01:41.912Z,-0.23
2022-12-04T16:10:21.489Z,-0.23
2022-12-04T16:18:45.232Z,-0.19
2022-12-04T16:27:12.651Z,-0.24
2022-12-04T16:35:34.313Z,-0.27
2022-12-04T16:43:58.919Z,-0.28
2022-12-04T16:52:21.390Z,-0.27
2022-12-04T17:00:49.324Z,-0.26
2022-12-04T17:09:12.260Z,-0.29
2022-12-04T17:17:37.786Z,-0.27
2022-12-04T17:26:06.624Z,-0.28
2022-12-04T17:34:28.801Z,-0.34
2022-12-04T17:42:50.584Z,-0.31
2022-12-04T17:51:17.958Z,-0.29
2022-12-04T17:59:40.583Z,-0.34
2022-12-04T18:08:02.096Z,-0.35
2022-12-04T18:16:25.379Z,-0.32
2022-12-04T18:24:47.424Z,-0.33
2022-12-04T18:33:09.047Z,-0.33
2022-12-04T18:41:31.455Z,-0.33
2022-12-04T18:49:52.927Z,-0.35
2022-12-04T18:58:14.433Z,-0.29
2022-12-04T19:06:42.036Z,-0.25
2022-12-04T19:15:04.737Z,-0.22
2022-12-04T19:23:26.271Z,-0.23
2022-12-04T19:31:47.880Z,-0.30
2022-12-04T19:40:11.074Z,-0.34
2022-12-04T19:48:33.730Z,-0.33
2022-12-04T19:56:56.336Z,-0.33
2022-12-04T20:05:17.817Z,-0.32
2022-12-04T20:13:39.825Z,-0.29
2022-12-04T20:22:01.315Z,-0.29
2022-12-04T20:30:22.852Z,-0.30
2022-12-04T20:38:45.720Z,-0.38
2022-12-04T20:47:07.904Z,-0.42
2022-12-04T20:55:29.517Z,-0.40
2022-12-04T21:03:52.427Z,-0.40
2022-12-04T21:12:35.471Z,-0.38
2022-12-04T21:21:00.944Z,-0.38
2022-12-04T21:29:23.341Z,-0.36
2022-12-04T21:37:44.867Z,-0.39
2022-12-04T21:46:09.626Z,-0.43
2022-12-04T21:54:31.536Z,-0.48
2022-12-04T22:02:53.129Z,-0.45
2022-12-04T22:11:16.580Z,-0.48
2022-12-04T22:19:38.663Z,-0.52
2022-12-04T22:28:00.516Z,-0.54
2022-12-04T22:36:25.141Z,-0.54
2022-12-04T22:44:46.591Z,-0.59
2022-12-04T22:53:08.232Z,-0.66
2022-12-04T23:01:32.340Z,-0.68
2022-12-04T23:09:53.787Z,-0.69
2022-12-04T23:18:15.440Z,-0.70
2022-12-04T23:26:40.485Z,-0.67
2022-12-04T23:35:01.956Z,-0.64
2022-12-04T23:43:23.506Z,-0.61
2022-12-04T23:51:44.957Z,-0.64
